createdAt,value
2022-08-26T00:01:39.295Z,23.42
2022-08-26T00:04:06.015Z,23.43
2022-08-26T00:06:33.668Z,23.39
2022-08-26T00:09:00.465Z,23.41
2022-08-26T00:11:27.869Z,23.43
2022-08-26T00:13:56.011Z,23.39
2022-08-26T00:16:24.464Z,23.37
2022-08-26T00:18:51.607Z,23.35
2022-08-26T00:21:18.657Z,23.35
2022-08-26T00:23:46.353Z,23.32
2022-08-26T00:26:13.685Z,23.29
2022-08-26T00:28:40.876Z,23.27
2022-08-26T00:31:08.032Z,23.22
2022-08-26T00:33:38.953Z,23.19
2022-08-26T00:36:06.951Z,23.20
2022-08-26T00:38:34.178Z,23.16
2022-08-26T00:41:05.312Z,23.14
2022-08-26T00:43:47.078Z,23.11
2022-08-26T00:46:19.527Z,23.08
2022-08-26T00:48:49.394Z,23.03
2022-08-26T00:51:19.628Z,23.05
2022-08-26T00:53:58.795Z,23.05
2022-08-26T00:56:38.381Z,23.05
2022-08-26T00:59:11.473Z,23.04
2022-08-26T01:01:40.297Z,23.06
2022-08-26T01:04:07.084Z,23.07
2022-08-26T01:06:33.798Z,23.06
2022-08-26T01:09:00.606Z,23.09
2022-08-26T01:11:27.841Z,23.09
2022-08-26T01:13:56.738Z,23.08
2022-08-26T01:16:25.772Z,23.06
2022-08-26T01:18:55.456Z,23.07
2022-08-26T01:21:41.293Z,23.06
2022-08-26T01:24:10.315Z,23.08
2022-08-26T01:26:41.402Z,23.11
2022-08-26T01:29:19.266Z,23.10
2022-08-26T01:31:50.285Z,23.12
2022-08-26T01:34:36.313Z,23.13
2022-08-26T01:37:15.459Z,23.13
2022-08-26T01:39:43.988Z,23.14
2022-08-26T01:42:14.263Z,23.14
2022-08-26T01:44:47.258Z,23.14
2022-08-26T01:47:16.689Z,23.14
2022-08-26T01:49:46.048Z,23.19
2022-08-26T01:52:16.682Z,23.22
2022-08-26T01:54:46.338Z,23.21
2022-08-26T01:57:19.075Z,23.23
2022-08-26T01:59:46.241Z,23.23
2022-08-26T02:02:13.194Z,23.22
2022-08-26T02:04:48.875Z,23.21
2022-08-26T02:07:18.570Z,23.19
2022-08-26T02:09:48.539Z,23.17
2022-08-26T02:12:17.818Z,23.12
2022-08-26T02:14:50.316Z,23.13
2022-08-26T02:17:19.151Z,23.09
2022-08-26T02:19:49.741Z,23.09
2022-08-26T02:22:21.427Z,23.06
2022-08-26T02:24:57.493Z,23.03
2022-08-26T02:27:32.259Z,22.99
2022-08-26T02:30:21.593Z,22.96
2022-08-26T02:32:49.490Z,22.99
2022-08-26T02:35:20.201Z,22.95
2022-08-26T02:37:47.565Z,22.93
2022-08-26T02:40:18.203Z,22.90
2022-08-26T02:42:45.227Z,22.89
2022-08-26T02:45:12.007Z,22.87
2022-08-26T02:47:39.395Z,22.83
2022-08-26T02:50:07.355Z,22.81
2022-08-26T02:52:34.951Z,22.80
2022-08-26T02:55:01.703Z,22.77
2022-08-26T02:57:29.126Z,22.73
2022-08-26T02:59:55.800Z,22.70
2022-08-26T03:02:23.203Z,22.69
2022-08-26T03:04:57.949Z,22.68
2022-08-26T03:07:29.498Z,22.67
2022-08-26T03:09:57.258Z,22.67
2022-08-26T03:12:24.245Z,22.68
2022-08-26T03:14:53.063Z,22.64
2022-08-26T03:17:19.774Z,22.60
2022-08-26T03:19:46.535Z,22.60
2022-08-26T03:22:14.672Z,22.57
2022-08-26T03:24:42.227Z,22.55
2022-08-26T03:27:13.068Z,22.55
2022-08-26T03:29:59.733Z,22.53
2022-08-26T03:32:27.086Z,22.49
2022-08-26T03:34:54.849Z,22.46
2022-08-26T03:37:22.780Z,22.45
2022-08-26T03:39:49.687Z,22.47
2022-08-26T03:42:16.517Z,22.46
2022-08-26T03:44:43.342Z,22.45
2022-08-26T03:47:10.505Z,22.44
2022-08-26T03:49:37.471Z,22.39
2022-08-26T03:52:04.459Z,22.39
2022-08-26T03:54:31.353Z,22.38
2022-08-26T03:56:58.417Z,22.34
2022-08-26T03:59:25.255Z,22.35
2022-08-26T04:01:52.171Z,22.36
2022-08-26T04:04:22.857Z,22.38
2022-08-26T04:06:57.453Z,22.35
2022-08-26T04:09:24.773Z,22.34
2022-08-26T04:11:51.883Z,22.30
2022-08-26T04:14:21.376Z,22.33
2022-08-26T04:16:48.992Z,22.33
2022-08-26T04:19:16.778Z,22.33
2022-08-26T04:21:45.175Z,22.32
2022-08-26T04:24:13.751Z,22.29
2022-08-26T04:26:42.867Z,22.31
2022-08-26T04:29:13.861Z,22.27
2022-08-26T04:31:41.451Z,22.34
2022-08-26T04:34:08.395Z,22.33
2022-08-26T04:36:37.915Z,22.34
2022-08-26T04:39:05.480Z,22.35
2022-08-26T04:41:32.963Z,22.34
2022-08-26T04:43:59.963Z,22.34
2022-08-26T04:46:27.528Z,22.35
2022-08-26T04:48:54.435Z,22.34
2022-08-26T04:51:28.028Z,22.40
2022-08-26T04:53:57.164Z,22.45
2022-08-26T04:56:30.312Z,22.44
2022-08-26T04:58:57.214Z,22.49
2022-08-26T05:01:24.218Z,22.50
2022-08-26T05:03:51.202Z,22.51
2022-08-26T05:06:19.708Z,22.55
2022-08-26T05:08:46.783Z,22.55
2022-08-26T05:11:13.863Z,22.59
2022-08-26T05:13:41.526Z,22.62
2022-08-26T05:16:11.844Z,22.62
2022-08-26T05:18:39.753Z,22.68
2022-08-26T05:21:07.251Z,22.71
2022-08-26T05:23:36.447Z,22.73
2022-08-26T05:26:07.653Z,22.82
2022-08-26T05:28:35.000Z,22.86
2022-08-26T05:31:02.075Z,22.93
2022-08-26T05:33:29.694Z,22.98
2022-08-26T05:35:56.382Z,23.01
2022-08-26T05:38:23.656Z,23.07
2022-08-26T05:40:52.716Z,23.12
2022-08-26T05:43:21.307Z,23.18
2022-08-26T05:45:50.080Z,23.22
2022-08-26T05:48:19.088Z,23.18
2022-08-26T05:50:52.404Z,23.26
2022-08-26T05:53:21.071Z,23.40
2022-08-26T05:55:53.218Z,23.32
2022-08-26T05:58:21.652Z,23.44
2022-08-26T06:00:58.555Z,23.52
2022-08-26T06:03:25.728Z,23.38
2022-08-26T06:05:52.659Z,23.44
2022-08-26T06:08:21.290Z,23.61
2022-08-26T06:10:53.825Z,23.74
2022-08-26T06:13:24.078Z,23.85
2022-08-26T06:15:52.080Z,24.02
2022-08-26T06:18:25.251Z,24.20
2022-08-26T06:20:56.977Z,24.29
2022-08-26T06:23:44.778Z,24.48
2022-08-26T06:26:13.114Z,24.60
2022-08-26T06:28:39.972Z,24.75
2022-08-26T06:31:10.609Z,24.89
2022-08-26T06:33:37.817Z,25.06
2022-08-26T06:36:07.207Z,25.22
2022-08-26T06:38:34.294Z,25.29
2022-08-26T06:41:03.576Z,25.45
2022-08-26T06:43:30.268Z,25.69
2022-08-26T06:46:06.465Z,25.80
2022-08-26T06:48:34.723Z,25.97
2022-08-26T06:51:10.482Z,26.10
2022-08-26T06:53:37.993Z,26.19
2022-08-26T06:56:10.205Z,26.38
2022-08-26T06:58:39.137Z,26.37
2022-08-26T07:01:18.794Z,26.44
2022-08-26T07:03:47.566Z,26.62
2022-08-26T07:06:15.531Z,26.70
2022-08-26T07:08:43.328Z,26.87
2022-08-26T07:11:11.349Z,27.09
2022-08-26T07:13:39.542Z,27.31
2022-08-26T07:16:08.528Z,27.48
2022-08-26T07:18:37.243Z,27.58
2022-08-26T07:21:08.839Z,27.75
2022-08-26T07:23:35.733Z,27.83
2022-08-26T07:26:16.313Z,27.94
2022-08-26T07:28:47.406Z,28.00
2022-08-26T07:31:15.746Z,28.13
2022-08-26T07:33:43.111Z,28.29
2022-08-26T07:36:11.923Z,28.54
2022-08-26T07:38:39.899Z,28.75
2022-08-26T07:41:07.602Z,28.86
2022-08-26T07:43:36.660Z,28.99
2022-08-26T07:46:06.980Z,29.15
2022-08-26T07:48:34.744Z,29.41
2022-08-26T07:51:03.065Z,29.59
2022-08-26T07:53:29.893Z,29.79
2022-08-26T07:55:59.047Z,30.10
2022-08-26T07:58:26.087Z,30.30
2022-08-26T08:00:52.849Z,30.38
2022-08-26T08:03:20.805Z,30.57
2022-08-26T08:05:47.747Z,30.82
2022-08-26T08:08:26.747Z,30.91
2022-08-26T08:10:55.795Z,31.05
2022-08-26T08:13:22.785Z,30.69
2022-08-26T08:15:50.699Z,31.10
2022-08-26T08:18:20.479Z,31.36
2022-08-26T08:21:04.852Z,31.46
2022-08-26T08:23:34.737Z,31.79
2022-08-26T08:26:02.465Z,31.85
2022-08-26T08:28:29.477Z,31.41
2022-08-26T08:30:56.556Z,31.85
2022-08-26T08:33:23.536Z,32.19
2022-08-26T08:35:50.347Z,32.32
2022-08-26T08:38:17.069Z,32.34
2022-08-26T08:40:45.709Z,32.22
2022-08-26T08:43:25.375Z,32.43
2022-08-26T08:45:58.475Z,32.38
2022-08-26T08:48:32.244Z,32.35
2022-08-26T08:51:04.234Z,32.25
2022-08-26T08:53:38.431Z,32.10
2022-08-26T08:56:26.415Z,32.03
2022-08-26T08:59:01.212Z,32.08
2022-08-26T09:01:42.243Z,32.25
2022-08-26T09:04:48.878Z,32.55
2022-08-26T09:07:23.488Z,32.77
2022-08-26T09:09:57.399Z,32.57
2022-08-26T09:12:29.201Z,32.76
2022-08-26T09:15:31.928Z,32.71
2022-08-26T09:18:32.878Z,32.74
2022-08-26T09:21:05.710Z,32.82
2022-08-26T09:23:34.247Z,32.64
2022-08-26T09:26:15.114Z,32.45
2022-08-26T09:28:45.768Z,32.20
2022-08-26T09:31:18.394Z,32.22
2022-08-26T09:33:45.254Z,32.27
2022-08-26T09:36:23.018Z,32.39
2022-08-26T09:38:52.696Z,32.47
2022-08-26T09:41:33.483Z,32.29
2022-08-26T09:44:14.473Z,32.63
2022-08-26T09:47:03.766Z,32.92
2022-08-26T09:49:39.795Z,33.18
2022-08-26T09:52:16.014Z,33.64
2022-08-26T09:54:46.016Z,34.10
2022-08-26T09:57:27.566Z,34.26
2022-08-26T09:59:56.321Z,34.36
2022-08-26T10:02:33.029Z,34.66
2022-08-26T10:05:09.261Z,34.31
2022-08-26T10:07:49.878Z,34.47
2022-08-26T10:10:27.701Z,34.77
2022-08-26T10:13:19.720Z,34.87
2022-08-26T10:15:53.445Z,35.12
2022-08-26T10:18:30.711Z,35.23
2022-08-26T10:21:23.642Z,35.52
2022-08-26T10:23:53.151Z,35.61
2022-08-26T10:26:33.810Z,35.76
2022-08-26T10:29:07.298Z,35.91
2022-08-26T10:31:40.661Z,35.38
2022-08-26T10:34:08.960Z,35.51
2022-08-26T10:37:13.487Z,35.17
2022-08-26T10:39:57.071Z,34.29
2022-08-26T10:42:38.192Z,34.54
2022-08-26T10:45:15.178Z,34.65
2022-08-26T10:47:59.928Z,34.73
2022-08-26T10:50:32.213Z,34.66
2022-08-26T10:53:16.656Z,34.91
2022-08-26T10:56:15.656Z,34.71
2022-08-26T10:58:57.997Z,34.69
2022-08-26T11:02:11.407Z,34.79
2022-08-26T11:04:48.457Z,34.83
2022-08-26T11:07:44.650Z,34.71
2022-08-26T11:10:40.145Z,34.82
2022-08-26T11:13:07.364Z,34.85
2022-08-26T11:15:40.561Z,34.77
2022-08-26T11:18:10.205Z,34.27
2022-08-26T11:20:41.749Z,34.72
2022-08-26T11:23:22.517Z,35.37
2022-08-26T11:26:01.447Z,35.67
2022-08-26T11:28:50.068Z,35.32
2022-08-26T11:31:26.149Z,34.47
2022-08-26T11:33:57.137Z,34.05
2022-08-26T11:36:45.520Z,33.62
2022-08-26T11:39:29.017Z,32.92
2022-08-26T11:42:00.120Z,32.49
2022-08-26T11:44:37.400Z,32.10
2022-08-26T11:47:05.396Z,31.55
2022-08-26T11:49:38.343Z,30.87
2022-08-26T11:52:13.971Z,30.68
2022-08-26T11:54:40.836Z,30.48
2022-08-26T11:57:11.990Z,30.22
2022-08-26T11:59:40.480Z,29.80
2022-08-26T12:02:17.955Z,29.45
2022-08-26T12:04:48.878Z,29.14
2022-08-26T12:07:16.657Z,28.86
2022-08-26T12:09:57.355Z,28.15
2022-08-26T12:12:26.628Z,28.19
2022-08-26T12:15:13.893Z,28.13
2022-08-26T12:17:42.020Z,28.00
2022-08-26T12:20:46.073Z,27.92
2022-08-26T12:23:43.262Z,27.71
2022-08-26T12:26:20.801Z,27.77
2022-08-26T12:28:51.248Z,27.99
2022-08-26T12:31:42.236Z,27.95
2022-08-26T12:34:17.522Z,27.91
2022-08-26T12:36:54.872Z,27.84
2022-08-26T12:39:37.367Z,27.72
2022-08-26T12:42:24.203Z,27.52
2022-08-26T12:45:03.891Z,27.48
2022-08-26T12:47:42.161Z,27.12
2022-08-26T12:50:22.840Z,27.23
2022-08-26T12:52:57.936Z,27.11
2022-08-26T12:55:35.736Z,26.96
2022-08-26T12:58:37.122Z,26.85
2022-08-26T13:01:07.074Z,26.71
2022-08-26T13:03:33.847Z,26.64
2022-08-26T13:06:29.662Z,26.56
2022-08-26T13:09:06.524Z,26.45
2022-08-26T13:11:39.354Z,26.34
2022-08-26T13:14:11.674Z,26.15
2022-08-26T13:16:46.353Z,25.93
2022-08-26T13:19:16.508Z,25.62
2022-08-26T13:21:48.052Z,25.50
2022-08-26T13:24:29.072Z,25.50
2022-08-26T13:26:56.238Z,25.39
2022-08-26T13:29:23.115Z,25.41
2022-08-26T13:31:50.784Z,25.34
2022-08-26T13:34:19.806Z,25.29
2022-08-26T13:36:51.686Z,25.26
2022-08-26T13:39:18.898Z,25.01
2022-08-26T13:41:46.296Z,24.91
2022-08-26T13:44:13.568Z,24.89
2022-08-26T13:46:40.792Z,24.84
2022-08-26T13:49:07.910Z,24.78
2022-08-26T13:51:35.029Z,24.81
2022-08-26T13:54:01.800Z,24.70
2022-08-26T13:56:32.438Z,24.65
2022-08-26T13:58:59.879Z,24.57
2022-08-26T14:01:29.084Z,24.54
2022-08-26T14:03:56.033Z,24.52
2022-08-26T14:06:22.775Z,24.53
2022-08-26T14:08:49.689Z,24.49
2022-08-26T14:11:16.748Z,24.44
2022-08-26T14:13:43.477Z,24.31
2022-08-26T14:16:14.043Z,24.07
2022-08-26T14:18:43.030Z,23.67
2022-08-26T14:21:12.923Z,23.54
2022-08-26T14:23:40.307Z,23.62
2022-08-26T14:26:08.519Z,23.58
2022-08-26T14:28:35.739Z,23.50
2022-08-26T14:31:02.952Z,23.44
2022-08-26T14:33:32.837Z,23.39
2022-08-26T14:36:19.306Z,23.44
2022-08-26T14:38:46.688Z,23.45
2022-08-26T14:41:14.379Z,23.46
2022-08-26T14:43:45.799Z,23.40
2022-08-26T14:46:14.288Z,23.34
2022-08-26T14:48:41.074Z,23.33
2022-08-26T14:51:07.994Z,23.32
2022-08-26T14:53:53.342Z,23.34
2022-08-26T14:56:20.134Z,23.35
2022-08-26T14:58:47.140Z,23.47
2022-08-26T15:01:14.002Z,23.32
2022-08-26T15:03:40.844Z,23.47
2022-08-26T15:06:08.141Z,23.49
2022-08-26T15:08:36.791Z,23.55
2022-08-26T15:11:04.088Z,23.54
2022-08-26T15:13:31.034Z,23.25
2022-08-26T15:15:57.795Z,23.39
2022-08-26T15:18:24.555Z,23.47
2022-08-26T15:20:51.281Z,23.46
2022-08-26T15:23:18.172Z,23.51
2022-08-26T15:25:45.116Z,23.53
2022-08-26T15:28:12.002Z,23.56
2022-08-26T15:30:38.738Z,23.59
2022-08-26T15:33:05.520Z,23.54
2022-08-26T15:35:42.604Z,23.49
2022-08-26T15:38:10.881Z,23.56
2022-08-26T15:40:37.960Z,23.52
2022-08-26T15:43:18.502Z,23.52
2022-08-26T15:45:51.985Z,23.59
2022-08-26T15:48:19.147Z,23.45
2022-08-26T15:50:55.119Z,23.50
2022-08-26T15:53:22.658Z,23.49
2022-08-26T15:55:50.179Z,23.46
2022-08-26T15:58:17.116Z,23.37
2022-08-26T16:00:44.987Z,23.41
2022-08-26T16:03:11.821Z,23.47
2022-08-26T16:05:39.832Z,23.52
2022-08-26T16:08:07.840Z,23.52
2022-08-26T16:10:36.668Z,23.58
2022-08-26T16:13:04.569Z,23.58
2022-08-26T16:15:34.895Z,23.58
2022-08-26T16:18:02.503Z,23.54
2022-08-26T16:20:30.299Z,23.32
2022-08-26T16:22:57.044Z,23.45
2022-08-26T16:25:23.780Z,23.46
2022-08-26T16:27:51.945Z,23.48
2022-08-26T16:30:20.286Z,23.48
2022-08-26T16:32:47.514Z,23.46
2022-08-26T16:35:15.255Z,23.47
2022-08-26T16:37:42.460Z,23.47
2022-08-26T16:40:10.475Z,23.49
2022-08-26T16:42:38.042Z,23.51
2022-08-26T16:45:05.806Z,23.54
2022-08-26T16:47:33.635Z,23.51
2022-08-26T16:50:00.597Z,23.33
2022-08-26T16:52:28.297Z,23.45
2022-08-26T16:54:58.539Z,23.52
2022-08-26T16:57:25.256Z,23.51
2022-08-26T16:59:52.101Z,23.48
2022-08-26T17:02:18.955Z,23.46
2022-08-26T17:04:46.164Z,23.45
2022-08-26T17:07:15.243Z,23.49
2022-08-26T17:09:43.473Z,23.53
2022-08-26T17:12:10.379Z,23.51
2022-08-26T17:14:37.477Z,23.52
2022-08-26T17:17:05.720Z,23.52
2022-08-26T17:19:32.792Z,23.49
2022-08-26T17:22:08.783Z,23.47
2022-08-26T17:24:35.550Z,23.50
2022-08-26T17:27:02.423Z,23.48
2022-08-26T17:29:29.207Z,23.49
2022-08-26T17:31:55.954Z,23.43
2022-08-26T17:34:23.140Z,23.43
2022-08-26T17:36:50.285Z,23.44
2022-08-26T17:39:17.188Z,23.47
2022-08-26T17:41:44.149Z,23.43
2022-08-26T17:44:11.085Z,23.42
2022-08-26T17:46:38.534Z,23.38
2022-08-26T17:49:05.462Z,23.37
2022-08-26T17:51:32.919Z,23.37
2022-08-26T17:53:59.755Z,23.34
2022-08-26T17:56:28.399Z,23.32
2022-08-26T17:59:02.257Z,23.30
2022-08-26T18:01:30.348Z,23.33
2022-08-26T18:04:00.350Z,23.30
2022-08-26T18:06:27.868Z,23.30
2022-08-26T18:08:54.806Z,23.31
2022-08-26T18:11:23.107Z,23.36
2022-08-26T18:13:50.089Z,23.32
2022-08-26T18:16:18.089Z,23.31
2022-08-26T18:18:45.955Z,23.28
2022-08-26T18:21:18.521Z,23.26
2022-08-26T18:23:46.472Z,23.23
2022-08-26T18:26:26.498Z,23.20
2022-08-26T18:28:53.664Z,23.15
2022-08-26T18:31:21.278Z,23.14
2022-08-26T18:33:48.370Z,23.17
2022-08-26T18:36:27.889Z,23.14
2022-08-26T18:38:55.537Z,23.10
2022-08-26T18:41:24.646Z,23.06
2022-08-26T18:43:53.276Z,23.02
2022-08-26T18:46:21.370Z,23.01
2022-08-26T18:48:50.709Z,23.00
2022-08-26T18:51:20.807Z,22.95
2022-08-26T18:53:47.872Z,22.95
2022-08-26T18:56:18.067Z,22.92
2022-08-26T18:58:45.762Z,22.90
2022-08-26T19:01:13.799Z,22.89
2022-08-26T19:03:41.602Z,22.91
2022-08-26T19:06:13.666Z,22.88
2022-08-26T19:08:44.785Z,22.87
2022-08-26T19:11:12.686Z,22.87
2022-08-26T19:13:42.567Z,22.89
2022-08-26T19:16:19.566Z,22.87
2022-08-26T19:18:47.145Z,22.83
2022-08-26T19:21:15.115Z,22.80
2022-08-26T19:23:41.970Z,22.83
2022-08-26T19:26:10.351Z,22.81
2022-08-26T19:28:40.851Z,22.78
2022-08-26T19:31:12.606Z,22.75
2022-08-26T19:33:42.057Z,22.74
2022-08-26T19:36:14.967Z,22.75
2022-08-26T19:38:42.931Z,22.76
2022-08-26T19:41:27.795Z,22.79
2022-08-26T19:44:10.123Z,22.80
2022-08-26T19:49:05.790Z,22.78
2022-08-26T19:51:34.676Z,22.80
2022-08-26T19:54:01.714Z,22.87
2022-08-26T19:56:29.081Z,22.84
2022-08-26T19:58:57.744Z,22.84
2022-08-26T20:01:25.238Z,22.86
2022-08-26T20:03:52.155Z,22.89
2022-08-26T20:06:20.188Z,22.88
2022-08-26T20:08:47.365Z,22.90
2022-08-26T20:11:18.908Z,22.91
2022-08-26T20:13:47.965Z,22.89
2022-08-26T20:16:16.345Z,22.91
2022-08-26T20:19:03.361Z,22.93
2022-08-26T20:21:34.249Z,22.93
2022-08-26T20:24:07.316Z,22.92
2022-08-26T20:26:37.373Z,22.90
2022-08-26T20:29:05.832Z,22.88
2022-08-26T20:31:32.807Z,22.86
2022-08-26T20:33:59.783Z,22.85
2022-08-26T20:36:27.513Z,22.86
2022-08-26T20:38:55.522Z,22.83
2022-08-26T20:41:25.495Z,22.82
2022-08-26T20:43:53.261Z,22.80
2022-08-26T20:46:24.119Z,22.80
2022-08-26T20:48:51.838Z,22.78
2022-08-26T20:51:18.967Z,22.76
2022-08-26T20:53:45.934Z,22.79
2022-08-26T20:56:14.096Z,22.77
2022-08-26T20:58:41.282Z,22.76
2022-08-26T21:01:17.985Z,22.75
2022-08-26T21:03:45.066Z,22.74
2022-08-26T21:06:12.494Z,22.73
2022-08-26T21:08:42.649Z,22.68
2022-08-26T21:11:10.144Z,22.66
2022-08-26T21:13:54.475Z,22.66
2022-08-26T21:16:25.236Z,22.66
2022-08-26T21:18:52.559Z,22.66
2022-08-26T21:21:19.356Z,22.69
2022-08-26T21:23:51.788Z,22.70
2022-08-26T21:26:18.621Z,22.69
2022-08-26T21:28:46.354Z,22.63
2022-08-26T21:31:16.866Z,22.60
2022-08-26T21:33:44.161Z,22.58
2022-08-26T21:36:12.724Z,22.55
2022-08-26T21:38:41.029Z,22.51
2022-08-26T21:41:13.295Z,22.50
2022-08-26T21:43:41.706Z,22.49
2022-08-26T21:46:17.075Z,22.51
2022-08-26T21:48:51.618Z,22.53
2022-08-26T21:51:21.373Z,22.51
2022-08-26T21:53:48.745Z,22.54
2022-08-26T21:56:17.141Z,22.54
2022-08-26T21:58:44.411Z,22.50
2022-08-26T22:01:12.935Z,22.52
2022-08-26T22:03:47.590Z,22.51
2022-08-26T22:06:22.170Z,22.49
2022-08-26T22:08:53.104Z,22.50
2022-08-26T22:11:20.507Z,22.53
2022-08-26T22:13:48.705Z,22.56
2022-08-26T22:16:15.644Z,22.57
2022-08-26T22:18:43.966Z,22.42
2022-08-26T22:21:19.842Z,22.51
2022-08-26T22:23:46.854Z,22.52
2022-08-26T22:26:15.100Z,22.53
2022-08-26T22:28:50.061Z,22.55
2022-08-26T22:31:22.480Z,22.55
2022-08-26T22:33:55.000Z,22.49
2022-08-26T22:36:24.361Z,22.49
2022-08-26T22:38:51.429Z,22.52
2022-08-26T22:41:18.549Z,22.49
2022-08-26T22:43:46.024Z,22.47
2022-08-26T22:46:20.700Z,22.45
2022-08-26T22:48:47.423Z,22.48
2022-08-26T22:51:20.756Z,22.49
2022-08-26T22:53:47.521Z,22.49
2022-08-26T22:56:14.878Z,22.44
2022-08-26T22:58:42.044Z,22.37
2022-08-26T23:01:08.789Z,22.43
2022-08-26T23:03:35.975Z,22.38
2022-08-26T23:06:06.086Z,22.29
2022-08-26T23:08:32.804Z,22.33
2022-08-26T23:13:26.335Z,22.23
2022-08-26T23:16:00.902Z,22.21
2022-08-26T23:18:27.649Z,22.19
2022-08-26T23:20:55.839Z,22.18
2022-08-26T23:23:23.326Z,22.19
2022-08-26T23:25:50.151Z,22.07
2022-08-26T23:28:17.764Z,22.11
2022-08-26T23:30:44.453Z,22.00
2022-08-26T23:33:11.348Z,22.11
2022-08-26T23:35:38.238Z,22.16
2022-08-26T23:38:07.580Z,22.13
2022-08-26T23:40:37.477Z,22.16
2022-08-26T23:43:07.743Z,22.15
2022-08-26T23:45:35.207Z,22.14
2022-08-26T23:48:02.051Z,22.14
2022-08-26T23:50:50.002Z,22.15
2022-08-26T23:53:20.149Z,22.13
2022-08-26T23:55:48.545Z,22.11
2022-08-26T23:58:16.981Z,22.11
